createdAt,value
2022-09-04T00:01:15.250Z,15.65
2022-09-04T00:03:46.856Z,15.62
2022-09-04T00:06:21.296Z,15.60
2022-09-04T00:09:17.613Z,15.53
2022-09-04T00:12:04.563Z,15.44
2022-09-04T00:14:45.855Z,15.44
2022-09-04T00:17:36.133Z,15.41
2022-09-04T00:20:07.714Z,15.40
2022-09-04T00:22:56.516Z,15.39
2022-09-04T00:25:32.873Z,15.33
2022-09-04T00:28:18.025Z,15.24
2022-09-04T00:30:50.428Z,15.18
2022-09-04T00:33:28.969Z,15.13
2022-09-04T00:36:02.151Z,15.05
2022-09-04T00:38:43.352Z,14.99
2022-09-04T00:41:27.253Z,14.91
2022-09-04T00:44:15.519Z,14.87
2022-09-04T00:46:52.226Z,14.84
2022-09-04T00:49:29.757Z,14.73
2022-09-04T00:52:19.694Z,14.70
2022-09-04T00:55:07.747Z,14.64
2022-09-04T00:57:57.642Z,14.60
2022-09-04T01:00:27.940Z,14.56
2022-09-04T01:03:14.948Z,14.53
2022-09-04T01:05:51.970Z,14.50
2022-09-04T01:09:01.292Z,14.45
2022-09-04T01:12:22.219Z,14.44
2022-09-04T01:15:11.453Z,14.44
2022-09-04T01:18:00.178Z,14.40
2022-09-04T01:20:51.515Z,14.40
2022-09-04T01:23:18.176Z,14.40
2022-09-04T01:26:16.041Z,14.35
2022-09-04T01:28:45.750Z,14.33
2022-09-04T01:31:34.210Z,14.29
2022-09-04T01:34:07.132Z,14.24
2022-09-04T01:37:01.609Z,14.19
2022-09-04T01:39:32.116Z,14.16
2022-09-04T01:42:11.468Z,14.15
2022-09-04T01:44:38.277Z,14.15
2022-09-04T01:47:30.759Z,14.14
2022-09-04T01:50:04.260Z,14.10
2022-09-04T01:52:38.747Z,14.01
2022-09-04T01:55:12.402Z,14.00
2022-09-04T01:57:44.902Z,13.95
2022-09-04T02:00:13.885Z,13.94
2022-09-04T02:03:03.105Z,13.92
2022-09-04T02:05:32.462Z,13.90
2022-09-04T02:08:06.329Z,13.88
2022-09-04T02:10:51.251Z,13.87
2022-09-04T02:14:04.436Z,13.84
2022-09-04T02:16:54.258Z,13.84
2022-09-04T02:19:26.676Z,13.77
2022-09-04T02:22:07.219Z,13.74
2022-09-04T02:25:15.413Z,13.70
2022-09-04T02:28:04.756Z,13.71
2022-09-04T02:30:54.755Z,13.71
2022-09-04T02:33:36.812Z,13.70
2022-09-04T02:36:12.080Z,13.66
2022-09-04T02:38:51.761Z,13.66
2022-09-04T02:41:51.120Z,13.64
2022-09-04T02:44:43.519Z,13.59
2022-09-04T02:47:32.065Z,13.54
2022-09-04T02:50:08.020Z,13.56
2022-09-04T02:52:41.881Z,13.57
2022-09-04T02:55:45.797Z,13.57
2022-09-04T02:58:47.695Z,13.59
2022-09-04T03:01:22.753Z,13.60
2022-09-04T03:04:09.192Z,13.60
2022-09-04T03:06:52.245Z,13.57
2022-09-04T03:09:50.634Z,13.57
2022-09-04T03:12:49.009Z,13.57
2022-09-04T03:15:31.075Z,13.52
2022-09-04T03:18:25.541Z,13.51
2022-09-04T03:21:01.710Z,13.50
2022-09-04T03:23:51.952Z,13.48
2022-09-04T03:26:20.750Z,13.46
2022-09-04T03:29:24.764Z,13.45
2022-09-04T03:32:15.025Z,13.39
2022-09-04T03:34:57.706Z,13.36
2022-09-04T03:37:54.926Z,13.38
2022-09-04T03:40:43.167Z,13.41
2022-09-04T03:43:36.236Z,13.43
2022-09-04T03:46:55.264Z,13.41
2022-09-04T03:50:03.651Z,13.37
2022-09-04T03:52:55.975Z,13.35
2022-09-04T03:55:22.573Z,13.34
2022-09-04T03:57:49.302Z,13.30
2022-09-04T04:00:20.075Z,13.20
2022-09-04T04:03:18.850Z,13.15
2022-09-04T04:06:06.969Z,13.13
2022-09-04T04:08:44.550Z,13.14
2022-09-04T04:11:30.258Z,13.14
2022-09-04T04:14:18.364Z,13.14
2022-09-04T04:17:03.889Z,13.13
2022-09-04T04:19:49.626Z,13.06
2022-09-04T04:22:31.257Z,13.03
2022-09-04T04:25:14.794Z,13.02
2022-09-04T04:28:00.305Z,13.02
2022-09-04T04:30:37.242Z,12.96
2022-09-04T04:33:38.072Z,12.93
2022-09-04T04:36:13.337Z,12.90
2022-09-04T04:38:47.711Z,12.89
2022-09-04T04:41:14.837Z,12.85
2022-09-04T04:44:03.104Z,12.83
2022-09-04T04:46:55.263Z,12.79
2022-09-04T04:49:56.326Z,12.78
2022-09-04T04:52:54.179Z,12.76
2022-09-04T04:56:15.501Z,12.73
2022-09-04T04:59:01.913Z,12.71
2022-09-04T05:01:43.525Z,12.74
2022-09-04T05:04:32.128Z,12.72
2022-09-04T05:07:07.172Z,12.73
2022-09-04T05:09:55.065Z,12.74
2022-09-04T05:12:46.130Z,12.73
2022-09-04T05:16:05.447Z,12.69
2022-09-04T05:18:40.226Z,12.72
2022-09-04T05:21:22.839Z,12.75
2022-09-04T05:24:01.934Z,12.67
2022-09-04T05:26:53.737Z,12.67
2022-09-04T05:29:32.786Z,12.69
2022-09-04T05:32:11.849Z,12.70
2022-09-04T05:35:02.785Z,12.67
2022-09-04T05:37:43.198Z,12.71
2022-09-04T05:40:38.806Z,12.90
2022-09-04T05:43:50.704Z,13.17
2022-09-04T05:46:36.082Z,13.52
2022-09-04T05:49:27.464Z,14.07
2022-09-04T05:52:20.206Z,14.56
2022-09-04T05:54:46.944Z,14.81
2022-09-04T05:57:32.455Z,15.01
2022-09-04T06:00:07.294Z,15.17
2022-09-04T06:02:53.244Z,15.30
2022-09-04T06:06:01.709Z,15.44
2022-09-04T06:09:06.084Z,15.64
2022-09-04T06:12:00.652Z,15.96
2022-09-04T06:14:30.663Z,16.39
2022-09-04T06:17:06.419Z,16.68
2022-09-04T06:20:04.521Z,16.83
2022-09-04T06:22:47.873Z,17.08
2022-09-04T06:25:33.299Z,17.22
2022-09-04T06:28:47.505Z,17.31
2022-09-04T06:31:20.232Z,17.42
2022-09-04T06:34:20.264Z,17.51
2022-09-04T06:37:07.506Z,17.64
2022-09-04T06:39:36.986Z,17.85
2022-09-04T06:42:21.911Z,17.93
2022-09-04T06:45:22.773Z,17.92
2022-09-04T06:48:01.730Z,17.83
2022-09-04T06:50:43.918Z,18.16
2022-09-04T06:53:18.855Z,18.38
2022-09-04T06:56:20.853Z,18.60
2022-09-04T06:58:54.045Z,18.87
2022-09-04T07:01:52.453Z,18.93
2022-09-04T07:04:56.468Z,19.14
2022-09-04T07:07:39.111Z,19.51
2022-09-04T07:10:22.668Z,19.74
2022-09-04T07:12:55.322Z,19.97
2022-09-04T07:16:02.674Z,20.12
2022-09-04T07:18:50.716Z,20.16
2022-09-04T07:21:27.744Z,20.55
2022-09-04T07:24:06.790Z,20.66
2022-09-04T07:27:12.324Z,20.68
2022-09-04T07:29:51.294Z,20.73
2022-09-04T07:32:44.347Z,20.73
2022-09-04T07:35:19.170Z,20.71
2022-09-04T07:38:00.494Z,20.80
2022-09-04T07:40:39.368Z,21.09
2022-09-04T07:43:22.534Z,21.40
2022-09-04T07:46:05.547Z,21.45
2022-09-04T07:48:44.009Z,21.39
2022-09-04T07:51:17.107Z,21.29
2022-09-04T07:54:20.525Z,21.41
2022-09-04T07:57:25.663Z,21.20
2022-09-04T08:00:15.357Z,20.82
2022-09-04T08:03:02.960Z,20.61
2022-09-04T08:05:49.382Z,20.44
2022-09-04T08:08:28.124Z,20.45
2022-09-04T08:11:16.199Z,20.51
2022-09-04T08:14:19.629Z,20.74
2022-09-04T08:16:56.777Z,20.98
2022-09-04T08:19:48.858Z,21.19
2022-09-04T08:22:28.257Z,21.45
2022-09-04T08:25:12.043Z,21.72
2022-09-04T08:27:54.520Z,21.94
2022-09-04T08:30:22.086Z,21.89
2022-09-04T08:33:10.288Z,21.67
2022-09-04T08:36:05.908Z,21.71
2022-09-04T08:38:42.125Z,21.79
2022-09-04T08:41:33.725Z,22.17
2022-09-04T08:44:37.624Z,22.23
2022-09-04T08:47:28.507Z,22.23
2022-09-04T08:50:40.315Z,22.57
2022-09-04T08:53:15.580Z,22.83
2022-09-04T08:56:20.653Z,23.05
2022-09-04T08:59:03.907Z,23.25
2022-09-04T09:01:58.599Z,23.09
2022-09-04T09:04:34.243Z,23.04
2022-09-04T09:07:29.354Z,22.96
2022-09-04T09:10:54.558Z,22.98
2022-09-04T09:13:33.571Z,23.19
2022-09-04T09:16:24.859Z,23.06
2022-09-04T09:19:11.968Z,23.16
2022-09-04T09:21:52.582Z,23.08
2022-09-04T09:24:34.156Z,23.08
2022-09-04T09:27:28.374Z,23.06
2022-09-04T09:30:12.665Z,23.23
2022-09-04T09:33:07.161Z,23.36
2022-09-04T09:35:54.575Z,23.29
2022-09-04T09:38:42.806Z,23.57
2022-09-04T09:41:28.602Z,23.82
2022-09-04T09:44:13.634Z,24.08
2022-09-04T09:47:02.018Z,24.14
2022-09-04T09:49:55.535Z,24.60
2022-09-04T09:52:55.943Z,24.79
2022-09-04T09:55:28.446Z,24.53
2022-09-04T09:58:25.708Z,24.53
2022-09-04T10:01:08.285Z,24.55
2022-09-04T10:04:34.243Z,24.86
2022-09-04T10:07:43.320Z,24.66
2022-09-04T10:10:24.906Z,24.51
2022-09-04T10:13:13.121Z,24.85
2022-09-04T10:16:04.308Z,25.25
2022-09-04T10:18:33.401Z,25.13
2022-09-04T10:21:14.994Z,25.02
2022-09-04T10:24:16.220Z,24.98
2022-09-04T10:27:14.632Z,24.84
2022-09-04T10:30:14.516Z,24.94
2022-09-04T10:33:07.936Z,24.71
2022-09-04T10:35:53.990Z,24.69
2022-09-04T10:38:27.552Z,24.60
2022-09-04T10:40:57.003Z,24.22
2022-09-04T10:43:37.922Z,24.21
2022-09-04T10:46:13.847Z,24.23
2022-09-04T10:48:59.028Z,24.35
2022-09-04T10:51:39.582Z,24.22
2022-09-04T10:54:33.804Z,24.00
2022-09-04T10:57:21.581Z,24.04
2022-09-04T11:00:13.973Z,24.19
2022-09-04T11:03:03.389Z,24.41
2022-09-04T11:05:48.429Z,24.76
2022-09-04T11:08:20.839Z,24.80
2022-09-04T11:10:53.289Z,24.59
2022-09-04T11:13:48.080Z,24.77
2022-09-04T11:16:17.375Z,24.69
2022-09-04T11:19:15.013Z,24.54
2022-09-04T11:22:03.117Z,24.46
2022-09-04T11:25:07.649Z,24.62
2022-09-04T11:27:55.754Z,24.69
2022-09-04T11:30:29.209Z,24.89
2022-09-04T11:33:23.229Z,24.92
2022-09-04T11:36:13.957Z,25.08
2022-09-04T11:39:23.639Z,24.95
2022-09-04T11:42:20.509Z,25.01
2022-09-04T11:45:03.784Z,25.25
2022-09-04T11:47:45.701Z,25.04
2022-09-04T11:50:22.153Z,24.54
2022-09-04T11:53:13.202Z,24.13
2022-09-04T11:56:01.190Z,23.78
2022-09-04T11:59:13.078Z,23.73
2022-09-04T12:02:04.304Z,23.75
2022-09-04T12:04:31.090Z,23.67
2022-09-04T12:07:13.584Z,23.56
2022-09-04T12:10:01.935Z,23.25
2022-09-04T12:12:54.267Z,23.19
2022-09-04T12:15:29.778Z,23.17
2022-09-04T12:18:34.588Z,23.13
2022-09-04T12:21:25.474Z,23.11
2022-09-04T12:24:14.961Z,23.10
2022-09-04T12:27:02.772Z,23.03
2022-09-04T12:29:51.260Z,23.01
2022-09-04T12:32:36.921Z,22.90
2022-09-04T12:35:21.473Z,23.02
2022-09-04T12:38:06.649Z,23.34
2022-09-04T12:40:51.902Z,23.64
2022-09-04T12:43:30.342Z,23.76
2022-09-04T12:46:06.169Z,23.73
2022-09-04T12:48:38.593Z,23.86
2022-09-04T12:51:13.074Z,23.78
2022-09-04T12:53:53.108Z,23.73
2022-09-04T12:56:43.474Z,23.59
2022-09-04T12:59:38.590Z,23.54
2022-09-04T13:02:05.355Z,23.55
2022-09-04T13:04:50.915Z,23.60
2022-09-04T13:07:33.942Z,23.66
2022-09-04T13:10:32.751Z,23.71
2022-09-04T13:13:26.865Z,23.70
2022-09-04T13:16:01.524Z,23.79
2022-09-04T13:19:17.455Z,23.81
2022-09-04T13:21:56.955Z,23.84
2022-09-04T13:24:44.401Z,23.83
2022-09-04T13:27:17.436Z,23.88
2022-09-04T13:30:22.109Z,23.77
2022-09-04T13:33:13.824Z,23.68
2022-09-04T13:35:43.514Z,23.63
2022-09-04T13:38:29.072Z,23.57
2022-09-04T13:41:12.962Z,23.59
2022-09-04T13:44:00.703Z,23.55
2022-09-04T13:46:41.876Z,23.40
2022-09-04T13:49:19.662Z,23.25
2022-09-04T13:51:55.618Z,23.18
2022-09-04T13:54:33.558Z,22.96
2022-09-04T13:57:10.707Z,22.69
2022-09-04T13:59:38.414Z,22.26
2022-09-04T14:02:12.506Z,21.94
2022-09-04T14:04:45.405Z,21.91
2022-09-04T14:07:44.645Z,21.81
2022-09-04T14:10:35.779Z,21.86
2022-09-04T14:13:15.447Z,21.82
2022-09-04T14:15:48.074Z,21.87
2022-09-04T14:18:45.384Z,21.84
2022-09-04T14:21:15.447Z,21.86
2022-09-04T14:24:18.774Z,21.80
2022-09-04T14:26:57.686Z,21.65
2022-09-04T14:30:08.735Z,21.56
2022-09-04T14:33:06.184Z,21.45
2022-09-04T14:35:35.347Z,21.45
2022-09-04T14:38:20.408Z,21.48
2022-09-04T14:40:59.741Z,21.43
2022-09-04T14:44:09.778Z,21.46
2022-09-04T14:46:51.279Z,21.45
2022-09-04T14:49:24.164Z,21.38
2022-09-04T14:51:56.642Z,21.31
2022-09-04T14:54:31.343Z,21.22
2022-09-04T14:57:04.582Z,21.31
2022-09-04T14:59:38.351Z,21.23
2022-09-04T15:02:14.095Z,21.01
2022-09-04T15:04:58.243Z,21.07
2022-09-04T15:07:42.867Z,20.78
2022-09-04T15:10:31.649Z,20.89
2022-09-04T15:13:20.384Z,20.80
2022-09-04T15:15:55.135Z,20.65
2022-09-04T15:18:24.377Z,20.45
2022-09-04T15:21:02.143Z,20.48
2022-09-04T15:23:42.399Z,20.34
2022-09-04T15:26:25.933Z,20.40
2022-09-04T15:28:59.949Z,20.19
2022-09-04T15:31:33.874Z,20.09
2022-09-04T15:34:04.195Z,20.02
2022-09-04T15:36:31.857Z,20.01
2022-09-04T15:39:02.161Z,20.01
2022-09-04T15:41:48.388Z,20.14
2022-09-04T15:44:30.367Z,19.95
2022-09-04T15:47:23.295Z,20.15
2022-09-04T15:49:55.663Z,19.90
2022-09-04T15:52:42.444Z,20.00
2022-09-04T15:55:38.531Z,19.91
2022-09-04T15:58:15.686Z,19.98
2022-09-04T16:01:17.177Z,19.99
2022-09-04T16:04:02.447Z,20.00
2022-09-04T16:06:35.476Z,19.70
2022-09-04T16:09:37.918Z,19.61
2022-09-04T16:12:14.670Z,19.61
2022-09-04T16:14:49.920Z,19.62
2022-09-04T16:17:25.247Z,19.62
2022-09-04T16:20:03.916Z,19.63
2022-09-04T16:22:47.637Z,19.58
2022-09-04T16:25:29.165Z,19.56
2022-09-04T16:28:10.348Z,19.51
2022-09-04T16:30:44.214Z,19.49
2022-09-04T16:33:33.162Z,19.42
2022-09-04T16:36:06.865Z,19.37
2022-09-04T16:38:59.896Z,19.30
2022-09-04T16:41:52.557Z,19.20
2022-09-04T16:44:22.062Z,19.14
2022-09-04T16:47:19.518Z,19.11
2022-09-04T16:50:05.878Z,19.12
2022-09-04T16:52:35.484Z,19.01
2022-09-04T16:55:24.832Z,19.00
2022-09-04T16:58:02.432Z,18.93
2022-09-04T17:00:51.429Z,18.85
2022-09-04T17:03:24.216Z,18.81
2022-09-04T17:06:03.173Z,18.74
2022-09-04T17:08:36.460Z,18.68
2022-09-04T17:11:15.026Z,18.66
2022-09-04T17:13:49.993Z,18.59
2022-09-04T17:16:21.901Z,18.52
2022-09-04T17:18:54.693Z,18.48
2022-09-04T17:29:00.616Z,18.46
2022-09-04T17:29:03.950Z,18.33
2022-09-04T17:29:12.477Z,18.24
2022-09-04T17:30:53.233Z,18.11
2022-09-04T17:40:16.406Z,17.97
2022-09-04T17:40:43.929Z,17.79
2022-09-04T17:40:46.714Z,17.75
2022-09-04T17:42:23.178Z,17.73
2022-09-04T17:45:22.378Z,17.68
2022-09-04T17:48:18.558Z,17.64
2022-09-04T17:50:54.928Z,17.52
2022-09-04T17:53:34.446Z,17.32
2022-09-04T17:56:27.248Z,17.21
2022-09-04T17:59:12.146Z,17.13
2022-09-04T18:01:51.576Z,17.05
2022-09-04T18:04:50.855Z,16.99
2022-09-04T18:08:08.061Z,16.93
2022-09-04T18:10:34.213Z,16.85
2022-09-04T18:13:37.851Z,16.79
2022-09-04T18:16:11.371Z,16.72
2022-09-04T18:18:52.813Z,16.67
2022-09-04T18:21:43.872Z,16.55
2022-09-04T18:24:28.919Z,16.48
2022-09-04T18:27:20.950Z,16.44
2022-09-04T18:32:25.274Z,16.45
2022-09-04T18:37:13.274Z,16.40
2022-09-04T18:37:23.207Z,16.32
2022-09-04T18:39:07.977Z,16.30
2022-09-04T18:48:44.270Z,16.26
2022-09-04T18:50:25.173Z,16.19
2022-09-04T18:50:30.656Z,16.05
2022-09-04T18:51:20.865Z,15.95
2022-09-04T18:53:59.963Z,15.95
2022-09-04T18:56:35.565Z,15.98
2022-09-04T18:59:24.816Z,15.90
2022-09-04T19:02:04.741Z,15.86
2022-09-04T19:04:51.892Z,15.82
2022-09-04T19:07:37.236Z,15.81
2022-09-04T19:10:33.945Z,15.77
2022-09-04T19:13:03.681Z,15.76
2022-09-04T19:15:45.519Z,15.74
2022-09-04T19:18:21.966Z,15.73
2022-09-04T19:20:52.740Z,15.72
2022-09-04T19:23:32.816Z,15.71
2022-09-04T19:26:07.671Z,15.68
2022-09-04T19:28:53.186Z,15.60
2022-09-04T19:31:26.181Z,15.54
2022-09-04T19:34:19.110Z,15.46
2022-09-04T19:36:59.128Z,15.36
2022-09-04T19:46:04.148Z,15.34
2022-09-04T19:46:13.770Z,15.24
2022-09-04T19:46:16.780Z,15.30
2022-09-04T19:51:08.023Z,15.20
2022-09-04T19:53:21.324Z,15.19
2022-09-04T19:54:41.484Z,15.22
2022-09-04T19:57:33.151Z,15.23
2022-09-04T20:00:42.316Z,15.18
2022-09-04T20:03:29.050Z,15.15
2022-09-04T20:06:22.507Z,15.13
2022-09-04T20:09:05.486Z,15.12
2022-09-04T20:11:38.937Z,15.08
2022-09-04T20:14:21.605Z,15.08
2022-09-04T20:17:13.471Z,15.03
2022-09-04T20:19:45.888Z,15.00
2022-09-04T20:22:37.403Z,14.97
2022-09-04T20:25:07.081Z,14.94
2022-09-04T20:27:41.817Z,14.91
2022-09-04T20:30:24.822Z,14.92
2022-09-04T20:33:06.363Z,14.87
2022-09-04T20:35:46.994Z,14.86
2022-09-04T20:38:46.153Z,14.80
2022-09-04T20:41:27.436Z,14.77
2022-09-04T20:44:05.452Z,14.73
2022-09-04T20:52:44.284Z,14.71
2022-09-04T20:52:52.987Z,14.67
2022-09-04T20:52:57.428Z,14.63
2022-09-04T20:55:35.393Z,14.65
2022-09-04T21:00:59.564Z,14.67
2022-09-04T21:03:18.897Z,14.64
2022-09-04T21:04:03.285Z,14.64
2022-09-04T21:06:34.827Z,14.61
2022-09-04T21:09:07.441Z,14.60
2022-09-04T21:11:41.949Z,14.60
2022-09-04T21:14:45.779Z,14.59
2022-09-04T21:17:37.611Z,14.58
2022-09-04T21:20:25.793Z,14.53
2022-09-04T21:23:05.568Z,14.51
2022-09-04T21:25:50.567Z,14.47
2022-09-04T21:28:37.273Z,14.42
2022-09-04T21:31:39.707Z,14.39
2022-09-04T21:34:43.604Z,14.32
2022-09-04T21:37:22.431Z,14.27
2022-09-04T21:40:30.978Z,14.25
2022-09-04T21:43:25.603Z,14.25
2022-09-04T21:46:07.726Z,14.24
2022-09-04T21:49:26.648Z,14.24
2022-09-04T21:52:23.851Z,14.19
2022-09-04T21:58:11.552Z,14.15
2022-09-04T22:02:36.516Z,14.03
2022-09-04T22:02:42.252Z,14.10
2022-09-04T22:05:18.517Z,14.01
2022-09-04T22:10:57.752Z,14.04
2022-09-04T22:13:40.088Z,14.05
2022-09-04T22:13:49.179Z,14.01
2022-09-04T22:16:44.863Z,13.93
2022-09-04T22:19:43.747Z,13.95
2022-09-04T22:22:25.406Z,13.91
2022-09-04T22:25:10.105Z,13.88
2022-09-04T22:28:05.880Z,13.83
2022-09-04T22:30:51.814Z,13.81
2022-09-04T22:34:16.826Z,13.80
2022-09-04T22:37:25.807Z,13.80
2022-09-04T22:40:12.718Z,13.79
2022-09-04T22:42:58.012Z,13.73
2022-09-04T22:45:33.386Z,13.71
2022-09-04T22:48:27.469Z,13.70
2022-09-04T22:51:22.976Z,13.68
2022-09-04T22:54:25.589Z,13.64
2022-09-04T22:56:54.229Z,13.65
2022-09-04T22:59:52.181Z,13.64
2022-09-04T23:06:11.334Z,13.64
2022-09-04T23:13:50.593Z,13.63
2022-09-04T23:13:59.441Z,13.59
2022-09-04T23:14:39.165Z,13.58
2022-09-04T23:17:32.055Z,13.56
2022-09-04T23:26:36.002Z,13.52
2022-09-04T23:26:49.608Z,13.51
2022-09-04T23:26:58.642Z,13.48
2022-09-04T23:29:59.420Z,13.48
2022-09-04T23:32:44.677Z,13.47
2022-09-04T23:35:23.201Z,13.43
2022-09-04T23:38:03.485Z,13.42
2022-09-04T23:40:47.206Z,13.41
2022-09-04T23:43:23.417Z,13.39
2022-09-04T23:46:08.317Z,13.37
2022-09-04T23:49:06.707Z,13.35
2022-09-04T23:51:36.467Z,13.32
2022-09-04T23:54:34.664Z,13.30
2022-09-04T23:57:16.876Z,13.29
